createdAt,value
2023-03-18T00:01:47.284Z,12.40368
2023-03-18T00:06:48.965Z,12.5682
2023-03-18T00:11:50.704Z,11.20631
2023-03-18T00:16:52.358Z,10.15315
2023-03-18T00:21:53.952Z,10.35736
2023-03-18T00:26:55.565Z,9.63451
2023-03-18T00:31:57.212Z,9.81141
2023-03-18T00:36:58.931Z,8.19708
2023-03-18T00:42:00.561Z,8.72015
2023-03-18T00:47:02.312Z,8.11959
2023-03-18T00:52:04.012Z,8.68998
2023-03-18T00:57:05.686Z,8.93644
2023-03-18T01:02:07.481Z,8.33396
2023-03-18T01:07:09.152Z,8.38541
2023-03-18T01:12:10.950Z,8.25679
2023-03-18T01:17:12.556Z,7.70418
2023-03-18T01:22:14.162Z,7.25066
2023-03-18T01:27:15.816Z,7.41485
2023-03-18T01:32:17.414Z,7.25225
2023-03-18T01:37:19.006Z,6.85844
2023-03-18T01:42:20.589Z,6.30552
2023-03-18T01:47:22.240Z,5.34325
2023-03-18T01:52:23.913Z,6.08099
2023-03-18T01:57:25.623Z,4.79415
2023-03-18T02:02:27.383Z,3.64992
2023-03-18T02:07:28.992Z,3.78584
2023-03-18T02:12:30.625Z,3.86111
2023-03-18T02:17:32.255Z,3.66167
2023-03-18T02:22:33.906Z,2.25546
2023-03-18T02:27:35.534Z,3.61308
2023-03-18T02:32:37.266Z,3.18086
2023-03-18T02:37:38.947Z,2.81057
2023-03-18T02:42:40.608Z,3.04399
2023-03-18T02:47:42.343Z,2.728
2023-03-18T02:52:43.990Z,2.97603
2023-03-18T02:57:45.622Z,2.28531
2023-03-18T03:02:47.295Z,2.05285
2023-03-18T03:07:49.184Z,1.55871
2023-03-18T03:12:50.786Z,2.23227
2023-03-18T03:17:52.548Z,2.26213
2023-03-18T03:22:54.416Z,2.91251
2023-03-18T03:27:56.051Z,2.86837
2023-03-18T03:32:57.683Z,2.90775
2023-03-18T03:37:59.299Z,2.68735
2023-03-18T03:43:00.978Z,2.3863
2023-03-18T03:48:02.602Z,1.93376
2023-03-18T03:53:04.179Z,2.20782
2023-03-18T03:58:05.918Z,2.04777
2023-03-18T04:03:07.572Z,1.01504
2023-03-18T04:08:09.169Z,1.00519
2023-03-18T04:13:10.902Z,1.00487
2023-03-18T04:18:12.988Z,0.80576
2023-03-18T04:23:14.602Z,0.6057
2023-03-18T04:28:16.195Z,-0.15773
2023-03-18T04:33:17.824Z,0.42818
2023-03-18T04:38:19.480Z,0.67461
2023-03-18T04:43:21.136Z,-0.15582
2023-03-18T04:48:22.779Z,-0.018
2023-03-18T04:53:24.384Z,0.85879
2023-03-18T04:58:26.005Z,1.0957
2023-03-18T05:03:27.652Z,0.93247
2023-03-18T05:08:29.349Z,1.21447
2023-03-18T05:13:31.109Z,0.57711
2023-03-18T05:18:32.775Z,-0.07675
2023-03-18T05:23:34.513Z,0.3437
2023-03-18T05:28:36.118Z,0.46089
2023-03-18T05:33:37.791Z,-0.09167
2023-03-18T05:38:39.400Z,-0.08596
2023-03-18T05:43:41.009Z,-0.37176
2023-03-18T05:48:42.622Z,-0.31555
2023-03-18T05:53:44.332Z,-0.2711
2023-03-18T05:58:46.004Z,-0.74363
2023-03-18T06:03:47.709Z,-0.00752
2023-03-18T06:08:49.387Z,-0.46004
2023-03-18T06:13:51.038Z,-1.08214
2023-03-18T06:18:52.892Z,-0.8843
2023-03-18T06:23:54.570Z,-0.35461
2023-03-18T06:28:56.179Z,-1.4213
2023-03-18T06:34:00.187Z,-1.38033
2023-03-18T06:39:02.856Z,-0.75506
2023-03-18T06:44:04.625Z,-1.43527
2023-03-18T06:49:06.298Z,-0.58834
2023-03-18T06:54:08.135Z,-0.25331
2023-03-18T06:59:09.797Z,-0.50228
2023-03-18T07:04:11.443Z,-1.30062
2023-03-18T07:09:13.166Z,-1.18853
2023-03-18T07:14:14.774Z,-1.44257
2023-03-18T07:19:16.687Z,-1.33619
2023-03-18T07:24:18.290Z,-2.01957
2023-03-18T07:29:19.912Z,-2.11039
2023-03-18T07:34:21.543Z,-1.05642
2023-03-18T07:39:23.186Z,-1.39144
2023-03-18T07:44:24.846Z,-1.04975
2023-03-18T07:49:26.520Z,-2.3873
2023-03-18T07:54:28.288Z,-2.15612
2023-03-18T07:59:29.969Z,-2.60482
2023-03-18T08:04:31.671Z,-2.07197
2023-03-18T08:09:33.447Z,-1.75441
2023-03-18T08:14:35.115Z,-1.52355
2023-03-18T08:19:36.771Z,-1.39938
2023-03-18T08:24:38.455Z,-1.93891
2023-03-18T08:29:40.107Z,-1.52704
2023-03-18T08:34:41.774Z,-1.77855
2023-03-18T08:39:43.376Z,-1.42542
2023-03-18T08:44:45.052Z,-2.33871
2023-03-18T08:49:46.959Z,-2.64706
2023-03-18T08:54:48.579Z,-2.95064
2023-03-18T08:59:50.217Z,-3.40982
2023-03-18T09:04:51.844Z,-3.31646
2023-03-18T09:09:53.467Z,-2.54099
2023-03-18T09:14:55.062Z,-3.56891
2023-03-18T09:19:56.729Z,-2.87665
2023-03-18T09:24:58.400Z,-3.35393
2023-03-18T09:30:00.193Z,-2.58609
2023-03-18T09:35:02.043Z,-3.09036
2023-03-18T09:40:03.864Z,-1.57118
2023-03-18T09:45:05.494Z,-1.63596
2023-03-18T09:50:07.283Z,-1.61469
2023-03-18T09:55:09.038Z,-1.40224
2023-03-18T10:00:10.719Z,-1.6836
2023-03-18T10:05:12.393Z,-1.77918
2023-03-18T10:10:14.019Z,-1.73504
2023-03-18T10:15:15.637Z,-1.8935
2023-03-18T10:20:17.405Z,-1.69027
2023-03-18T10:25:21.201Z,-1.66296
2023-03-18T10:30:22.994Z,-1.81602
2023-03-18T10:35:24.629Z,-1.71091
2023-03-18T10:40:26.240Z,-2.32506
2023-03-18T10:45:27.866Z,-1.97226
2023-03-18T10:50:29.636Z,-1.68264
2023-03-18T10:55:31.320Z,-1.73504
2023-03-18T11:00:33.396Z,-1.92812
2023-03-18T11:05:35.264Z,-2.16025
2023-03-18T11:10:37.043Z,-2.04847
2023-03-18T11:15:38.860Z,-2.19327
2023-03-18T11:20:40.471Z,-3.0567
2023-03-18T11:25:42.112Z,-3.00208
2023-03-18T11:30:44.047Z,-3.40886
2023-03-18T11:35:45.966Z,-3.74832
2023-03-18T11:40:47.602Z,-3.39584
2023-03-18T11:45:49.188Z,-4.13986
2023-03-18T11:50:50.803Z,-4.03888
2023-03-18T11:55:52.462Z,-3.52985
2023-03-18T12:00:54.079Z,-2.64134
2023-03-18T12:05:55.804Z,-3.01542
2023-03-18T12:10:57.438Z,-2.68453
2023-03-18T12:15:59.058Z,-2.82298
2023-03-18T12:21:00.685Z,-3.42188
2023-03-18T12:26:02.328Z,-2.9789
2023-03-18T12:31:03.965Z,-2.48352
2023-03-18T12:36:05.700Z,-2.3927
2023-03-18T12:41:07.261Z,-2.27743
2023-03-18T12:46:08.927Z,-2.13072
2023-03-18T12:51:10.590Z,-2.20407
2023-03-18T12:56:12.286Z,-2.16247
2023-03-18T13:01:14.041Z,-2.3892
2023-03-18T13:06:15.695Z,-2.73724
2023-03-18T13:11:17.304Z,-3.21293
2023-03-18T13:16:19.041Z,-2.86299
2023-03-18T13:21:20.669Z,-2.49368
2023-03-18T13:26:22.331Z,-3.16721
2023-03-18T13:31:24.019Z,-2.96143
2023-03-18T13:36:25.685Z,-3.63591
2023-03-18T13:41:27.299Z,-3.38886
2023-03-18T13:46:28.995Z,-3.05956
2023-03-18T13:51:30.662Z,-3.07829
2023-03-18T13:56:32.285Z,-2.89316
2023-03-18T14:01:34.034Z,-2.92555
2023-03-18T14:06:35.829Z,-2.80869
2023-03-18T14:11:37.532Z,-2.94778
2023-03-18T14:16:39.297Z,-2.56799
2023-03-18T14:21:40.944Z,-2.65785
2023-03-18T14:26:42.580Z,-3.04717
2023-03-18T14:31:44.271Z,-2.8414
2023-03-18T14:36:45.956Z,-2.85728
2023-03-18T14:41:47.607Z,-2.91063
2023-03-18T14:46:51.321Z,-2.91412
2023-03-18T14:51:53.263Z,-2.99795
2023-03-18T14:56:54.939Z,-2.28378
2023-03-18T15:01:56.753Z,-1.94368
2023-03-18T15:06:58.353Z,-2.08435
2023-03-18T15:12:00.015Z,-2.0853
2023-03-18T15:17:01.711Z,-1.51593
2023-03-18T15:22:03.493Z,-1.74171
2023-03-18T15:27:05.335Z,-0.91638
2023-03-18T15:32:10.093Z,-1.19773
2023-03-18T15:37:12.316Z,-1.4232
2023-03-18T15:42:13.987Z,-1.04753
2023-03-18T15:47:15.673Z,-0.56484
2023-03-18T15:52:17.328Z,0.33672
2023-03-18T15:57:18.922Z,-0.16916
2023-03-18T16:02:20.561Z,0.00709
2023-03-18T16:07:22.267Z,0.80544
2023-03-18T16:12:24.107Z,0.37705
2023-03-18T16:17:25.718Z,1.24845
2023-03-18T16:22:27.341Z,0.51995
2023-03-18T16:27:29.000Z,0.65682
2023-03-18T16:32:30.677Z,0.81275
2023-03-18T16:37:32.329Z,2.7099
2023-03-18T16:42:33.968Z,3.04621
2023-03-18T16:47:35.619Z,3.33012
2023-03-18T16:52:37.228Z,4.15709
2023-03-18T16:57:38.873Z,4.56073
2023-03-18T17:02:40.605Z,4.42163
2023-03-18T17:07:42.360Z,4.77129
2023-03-18T17:12:44.060Z,4.10405
2023-03-18T17:17:45.841Z,4.74175
2023-03-18T17:22:47.562Z,5.281
2023-03-18T17:27:49.161Z,4.61345
2023-03-18T17:32:50.863Z,4.64489
2023-03-18T17:37:52.574Z,5.33975
2023-03-18T17:42:54.185Z,6.09243
2023-03-18T17:47:55.776Z,5.97238
2023-03-18T17:52:57.385Z,6.18643
2023-03-18T17:57:59.020Z,6.47035
2023-03-18T18:03:00.863Z,5.89648
2023-03-18T18:08:02.593Z,5.86821
2023-03-18T18:13:04.218Z,5.55349
2023-03-18T18:18:05.819Z,5.42868
2023-03-18T18:23:07.504Z,5.92855
2023-03-18T18:28:09.187Z,7.25828
2023-03-18T18:33:10.825Z,7.3164
2023-03-18T18:38:12.457Z,7.62351
2023-03-18T18:43:14.158Z,8.92151
2023-03-18T18:48:15.797Z,7.69275
2023-03-18T18:53:17.411Z,6.86448
2023-03-18T18:58:19.024Z,6.56817
2023-03-18T19:03:20.681Z,7.16364
2023-03-18T19:08:22.358Z,6.88575
2023-03-18T19:13:24.064Z,7.1376
2023-03-18T19:18:25.689Z,8.42892
2023-03-18T19:23:27.349Z,8.80209
2023-03-18T19:28:29.059Z,8.24821
2023-03-18T19:33:30.714Z,8.75382
2023-03-18T19:38:32.362Z,8.62456
2023-03-18T19:43:34.045Z,9.10349
2023-03-18T19:48:35.691Z,9.43411
2023-03-18T19:53:37.303Z,9.79966
2023-03-18T19:58:39.106Z,10.17887
2023-03-18T20:03:40.771Z,10.06581
2023-03-18T20:08:42.369Z,10.68132
2023-03-18T20:13:43.997Z,9.66182
2023-03-18T20:18:45.968Z,10.41263
2023-03-18T20:23:47.690Z,11.56203
2023-03-18T20:28:49.292Z,11.69701
2023-03-18T20:33:50.914Z,10.87918
2023-03-18T20:38:52.549Z,9.05522
2023-03-18T20:43:54.176Z,10.57397
2023-03-18T20:48:55.837Z,9.99594
2023-03-18T20:53:57.474Z,10.10456
2023-03-18T20:58:59.236Z,9.67294
2023-03-18T21:04:00.929Z,9.26134
2023-03-18T21:09:02.829Z,9.58941
2023-03-18T21:14:04.415Z,10.2551
2023-03-18T21:19:06.066Z,10.3291
2023-03-18T21:24:07.816Z,9.85397
2023-03-18T21:29:09.468Z,10.47233
2023-03-18T21:34:11.138Z,11.21076
2023-03-18T21:39:12.899Z,10.85441
2023-03-18T21:44:14.542Z,11.17868
2023-03-18T21:49:16.224Z,10.47773
2023-03-18T21:54:17.969Z,9.72026
2023-03-18T21:59:19.630Z,10.28336
2023-03-18T22:04:21.300Z,9.38043
2023-03-18T22:09:23.099Z,9.15113
2023-03-18T22:14:24.710Z,8.86593
2023-03-18T22:19:26.479Z,8.61884
2023-03-18T22:24:28.207Z,9.13557
2023-03-18T22:29:29.867Z,9.63515
2023-03-18T22:34:31.465Z,9.4646
2023-03-18T22:39:33.069Z,9.30103
2023-03-18T22:44:34.708Z,8.91262
2023-03-18T22:49:36.372Z,9.26642
2023-03-18T22:54:38.016Z,9.69517
2023-03-18T22:59:39.619Z,9.18734
2023-03-18T23:04:41.264Z,8.92945
2023-03-18T23:09:56.260Z,8.68808
2023-03-18T23:14:58.638Z,10.22905
2023-03-18T23:20:00.251Z,8.92056
2023-03-18T23:25:01.890Z,10.44788
2023-03-18T23:30:03.492Z,8.88372
2023-03-18T23:35:05.222Z,9.56591
2023-03-18T23:40:06.923Z,9.93178
2023-03-18T23:45:08.595Z,8.66934
2023-03-18T23:50:10.274Z,9.66786
2023-03-18T23:55:30.886Z,9.1686
